Terminal Aerodrome Forecast
Issued by NWS

Home | Current Version | Previous Version | Graphics & Text | Print | Product List | Glossary On
Versions: 1 2 3 4 5 6 7 8 9 10 11 12 13 14 15 16
000
FTUS43 KABR 172300
TAFMBG
TAF
KMBG 172324Z 1800/1824 18006KT P6SM BKN100
      TEMPO 1801/1802 3SM +TSRA BKN040CB
     FM180300 18006KT P6SM SCT250
     FM180600 27006KT P6SM SKC
     FM181500 30015G24KT P6SM BKN040=

USA.gov is the U.S. government's official web portal to all federal, state and local government web resources and services.